Current Weather

San Francisco Intl

San Francisco, California (KSFO)

Report from: Friday, February 3, 2023 7:56 PM PST
Current time: Friday, February 3, 2023 9:14 PM PST

Nearby weather
Weather history
Weather forecast

Temperature11.7°C (53.1°F)
Dew point10.0°C (50.0°F)
Winds Calm
Visibility7 mi. (11.3 km)
Clouds Few clouds 400 ft. (122 m)
Scattered clouds 700 ft. (213 m)
Ceiling: Overcast 1,800 ft. (549 m)
Altimeter30.21 in.Hg (1023 mB)
Relative humidity89 %
Density altitude-550 ft. (-168 m)
Sea-level pressure102.3 kPa (1023 mB, 30.21 in.Hg)
Remarks Automated weather observing station with precipitation discriminator
Flight conditions Marginal Visual Meteorological Conditions
Raw dataKSFO 040356Z 00000KT 7SM FEW004 SCT007 OVC018 12/10 A3021 RMK AO2 SLP230 T01170100
An unhandled exception has occurred. See browser dev tools for details. Reload 🗙